sensor_id;sensor_type;location;lat;lon;timestamp;P1;durP1;ratioP1;P2;durP2;ratioP2
19985;SDS011;10154;52.474;10.768;2024-01-15T00:00:15;15.00;;;5.73;;
19985;SDS011;10154;52.474;10.768;2024-01-15T00:02:41;20.77;;;8.00;;
19985;SDS011;10154;52.474;10.768;2024-01-15T00:05:06;4.47;;;2.83;;
19985;SDS011;10154;52.474;10.768;2024-01-15T00:07:32;16.67;;;8.10;;
19985;SDS011;10154;52.474;10.768;2024-01-15T00:09:57;10.90;;;5.63;;
19985;SDS011;10154;52.474;10.768;2024-01-15T00:12:22;15.27;;;6.80;;
19985;SDS011;10154;52.474;10.768;2024-01-15T00:14:48;13.00;;;5.50;;
19985;SDS011;10154;52.474;10.768;2024-01-15T00:17:13;12.40;;;5.90;;
19985;SDS011;10154;52.474;10.768;2024-01-15T00:19:38;19.27;;;8.53;;
19985;SDS011;10154;52.474;10.768;2024-01-15T00:22:04;10.57;;;5.20;;
19985;SDS011;10154;52.474;10.768;2024-01-15T00:24:29;15.53;;;8.00;;
19985;SDS011;10154;52.474;10.768;2024-01-15T00:26:55;17.43;;;6.83;;
19985;SDS011;10154;52.474;10.768;2024-01-15T00:29:20;12.60;;;5.53;;
19985;SDS011;10154;52.474;10.768;2024-01-15T00:31:46;15.53;;;7.23;;
19985;SDS011;10154;52.474;10.768;2024-01-15T00:34:11;17.83;;;6.30;;
19985;SDS011;10154;52.474;10.768;2024-01-15T00:36:36;12.00;;;3.97;;
19985;SDS011;10154;52.474;10.768;2024-01-15T00:39:02;5.23;;;3.07;;
19985;SDS011;10154;52.474;10.768;2024-01-15T00:41:30;8.70;;;3.90;;
19985;SDS011;10154;52.474;10.768;2024-01-15T00:43:55;10.10;;;4.57;;
19985;SDS011;10154;52.474;10.768;2024-01-15T00:46:21;18.40;;;6.50;;
19985;SDS011;10154;52.474;10.768;2024-01-15T00:48:46;15.63;;;5.03;;
19985;SDS011;10154;52.474;10.768;2024-01-15T00:51:12;17.73;;;7.17;;
19985;SDS011;10154;52.474;10.768;2024-01-15T00:53:37;12.67;;;4.43;;
19985;SDS011;10154;52.474;10.768;2024-01-15T00:56:03;18.33;;;6.17;;
19985;SDS011;10154;52.474;10.768;2024-01-15T00:58:28;14.77;;;5.43;;
19985;SDS011;10154;52.474;10.768;2024-01-15T01:00:53;13.67;;;5.90;;
19985;SDS011;10154;52.474;10.768;2024-01-15T01:03:19;11.17;;;3.90;;
19985;SDS011;10154;52.474;10.768;2024-01-15T01:05:44;9.73;;;4.20;;
19985;SDS011;10154;52.474;10.768;2024-01-15T01:08:10;17.47;;;6.53;;
19985;SDS011;10154;52.474;10.768;2024-01-15T01:10:35;7.63;;;3.50;;
19985;SDS011;10154;52.474;10.768;2024-01-15T01:13:01;10.87;;;4.10;;
19985;SDS011;10154;52.474;10.768;2024-01-15T01:15:26;9.90;;;3.70;;
19985;SDS011;10154;52.474;10.768;2024-01-15T01:17:52;9.63;;;4.30;;
19985;SDS011;10154;52.474;10.768;2024-01-15T01:20:17;9.40;;;5.10;;
19985;SDS011;10154;52.474;10.768;2024-01-15T01:22:43;12.97;;;4.73;;
19985;SDS011;10154;52.474;10.768;2024-01-15T01:25:08;14.50;;;5.70;;
19985;SDS011;10154;52.474;10.768;2024-01-15T01:27:34;7.87;;;3.40;;
19985;SDS011;10154;52.474;10.768;2024-01-15T01:30:00;10.03;;;3.57;;
19985;SDS011;10154;52.474;10.768;2024-01-15T01:32:25;15.97;;;5.87;;
19985;SDS011;10154;52.474;10.768;2024-01-15T01:34:51;10.83;;;4.47;;
19985;SDS011;10154;52.474;10.768;2024-01-15T01:37:16;6.60;;;2.87;;
19985;SDS011;10154;52.474;10.768;2024-01-15T01:39:42;11.70;;;3.93;;
19985;SDS011;10154;52.474;10.768;2024-01-15T01:42:08;9.43;;;3.50;;
19985;SDS011;10154;52.474;10.768;2024-01-15T01:44:33;16.67;;;5.87;;
19985;SDS011;10154;52.474;10.768;2024-01-15T01:46:59;17.67;;;7.27;;
19985;SDS011;10154;52.474;10.768;2024-01-15T01:49:24;11.73;;;5.20;;
19985;SDS011;10154;52.474;10.768;2024-01-15T01:51:51;12.03;;;3.50;;
19985;SDS011;10154;52.474;10.768;2024-01-15T01:54:16;16.97;;;5.97;;
19985;SDS011;10154;52.474;10.768;2024-01-15T01:56:43;11.17;;;4.60;;
19985;SDS011;10154;52.474;10.768;2024-01-15T01:59:08;12.40;;;4.97;;
19985;SDS011;10154;52.474;10.768;2024-01-15T02:01:35;14.80;;;5.30;;
19985;SDS011;10154;52.474;10.768;2024-01-15T02:04:01;12.10;;;4.03;;
19985;SDS011;10154;52.474;10.768;2024-01-15T02:06:26;8.87;;;3.60;;
19985;SDS011;10154;52.474;10.768;2024-01-15T02:08:52;14.87;;;3.07;;
19985;SDS011;10154;52.474;10.768;2024-01-15T02:11:17;16.33;;;4.20;;
19985;SDS011;10154;52.474;10.768;2024-01-15T02:13:43;12.73;;;4.70;;
19985;SDS011;10154;52.474;10.768;2024-01-15T02:16:08;10.17;;;3.87;;
19985;SDS011;10154;52.474;10.768;2024-01-15T02:18:40;10.83;;;4.33;;
19985;SDS011;10154;52.474;10.768;2024-01-15T02:21:09;17.97;;;2.93;;
19985;SDS011;10154;52.474;10.768;2024-01-15T02:23:34;8.07;;;3.10;;
19985;SDS011;10154;52.474;10.768;2024-01-15T02:25:59;3.57;;;1.80;;
19985;SDS011;10154;52.474;10.768;2024-01-15T02:28:25;9.73;;;3.10;;
19985;SDS011;10154;52.474;10.768;2024-01-15T02:30:50;16.97;;;4.27;;
19985;SDS011;10154;52.474;10.768;2024-01-15T02:33:16;13.73;;;4.40;;
19985;SDS011;10154;52.474;10.768;2024-01-15T02:35:41;11.33;;;4.20;;
19985;SDS011;10154;52.474;10.768;2024-01-15T02:38:06;10.43;;;3.20;;
19985;SDS011;10154;52.474;10.768;2024-01-15T02:40:32;12.00;;;3.23;;
19985;SDS011;10154;52.474;10.768;2024-01-15T02:42:57;11.93;;;4.13;;
19985;SDS011;10154;52.474;10.768;2024-01-15T02:45:23;9.80;;;3.67;;
19985;SDS011;10154;52.474;10.768;2024-01-15T02:47:48;15.27;;;3.63;;
19985;SDS011;10154;52.474;10.768;2024-01-15T02:50:14;7.60;;;2.63;;
19985;SDS011;10154;52.474;10.768;2024-01-15T02:52:40;9.83;;;2.77;;
19985;SDS011;10154;52.474;10.768;2024-01-15T02:55:06;15.20;;;3.40;;
19985;SDS011;10154;52.474;10.768;2024-01-15T02:57:32;14.37;;;3.57;;
19985;SDS011;10154;52.474;10.768;2024-01-15T02:59:57;9.03;;;2.87;;
19985;SDS011;10154;52.474;10.768;2024-01-15T03:02:22;10.50;;;2.53;;
19985;SDS011;10154;52.474;10.768;2024-01-15T03:04:48;7.87;;;2.13;;
19985;SDS011;10154;52.474;10.768;2024-01-15T03:07:13;7.63;;;2.57;;
19985;SDS011;10154;52.474;10.768;2024-01-15T03:09:38;5.07;;;1.70;;
19985;SDS011;10154;52.474;10.768;2024-01-15T03:12:04;8.40;;;2.53;;
19985;SDS011;10154;52.474;10.768;2024-01-15T03:14:29;2.37;;;0.80;;
19985;SDS011;10154;52.474;10.768;2024-01-15T03:16:55;5.50;;;1.87;;
19985;SDS011;10154;52.474;10.768;2024-01-15T03:19:20;6.87;;;2.10;;
19985;SDS011;10154;52.474;10.768;2024-01-15T03:21:45;11.27;;;2.50;;
19985;SDS011;10154;52.474;10.768;2024-01-15T03:24:11;21.50;;;1.70;;
19985;SDS011;10154;52.474;10.768;2024-01-15T03:26:36;7.07;;;1.70;;
19985;SDS011;10154;52.474;10.768;2024-01-15T03:29:01;6.40;;;1.53;;
19985;SDS011;10154;52.474;10.768;2024-01-15T03:31:27;7.00;;;2.07;;
19985;SDS011;10154;52.474;10.768;2024-01-15T03:33:52;8.63;;;1.80;;
19985;SDS011;10154;52.474;10.768;2024-01-15T03:36:18;6.47;;;1.83;;
19985;SDS011;10154;52.474;10.768;2024-01-15T03:38:43;2.83;;;1.37;;
19985;SDS011;10154;52.474;10.768;2024-01-15T03:41:09;11.00;;;1.90;;
19985;SDS011;10154;52.474;10.768;2024-01-15T03:43:35;8.47;;;1.23;;
19985;SDS011;10154;52.474;10.768;2024-01-15T03:46:01;9.30;;;1.97;;
19985;SDS011;10154;52.474;10.768;2024-01-15T03:48:27;8.77;;;2.57;;
19985;SDS011;10154;52.474;10.768;2024-01-15T03:50:52;6.80;;;2.03;;
19985;SDS011;10154;52.474;10.768;2024-01-15T03:53:17;3.17;;;0.93;;
19985;SDS011;10154;52.474;10.768;2024-01-15T03:55:43;3.00;;;1.00;;
19985;SDS011;10154;52.474;10.768;2024-01-15T03:58:08;6.43;;;1.63;;
19985;SDS011;10154;52.474;10.768;2024-01-15T04:00:34;10.37;;;2.17;;
19985;SDS011;10154;52.474;10.768;2024-01-15T04:02:59;9.73;;;2.27;;
19985;SDS011;10154;52.474;10.768;2024-01-15T04:05:25;3.77;;;1.27;;
19985;SDS011;10154;52.474;10.768;2024-01-15T04:07:50;5.40;;;1.33;;
19985;SDS011;10154;52.474;10.768;2024-01-15T04:10:15;7.67;;;1.87;;
19985;SDS011;10154;52.474;10.768;2024-01-15T04:12:41;10.23;;;1.67;;
19985;SDS011;10154;52.474;10.768;2024-01-15T04:15:06;12.27;;;1.47;;
19985;SDS011;10154;52.474;10.768;2024-01-15T04:17:32;3.83;;;1.23;;
19985;SDS011;10154;52.474;10.768;2024-01-15T04:19:58;10.90;;;1.50;;
19985;SDS011;10154;52.474;10.768;2024-01-15T04:22:23;8.73;;;1.47;;
19985;SDS011;10154;52.474;10.768;2024-01-15T04:24:49;6.80;;;1.77;;
19985;SDS011;10154;52.474;10.768;2024-01-15T04:27:14;4.17;;;1.00;;
19985;SDS011;10154;52.474;10.768;2024-01-15T04:29:39;1.67;;;0.87;;
19985;SDS011;10154;52.474;10.768;2024-01-15T04:32:05;17.27;;;1.20;;
19985;SDS011;10154;52.474;10.768;2024-01-15T04:34:30;10.27;;;1.77;;
19985;SDS011;10154;52.474;10.768;2024-01-15T04:36:56;3.40;;;1.10;;
19985;SDS011;10154;52.474;10.768;2024-01-15T04:39:22;4.70;;;0.73;;
19985;SDS011;10154;52.474;10.768;2024-01-15T04:41:47;5.50;;;1.70;;
19985;SDS011;10154;52.474;10.768;2024-01-15T04:44:13;12.93;;;1.30;;
19985;SDS011;10154;52.474;10.768;2024-01-15T04:46:38;2.20;;;0.90;;
19985;SDS011;10154;52.474;10.768;2024-01-15T04:49:03;8.80;;;1.47;;
19985;SDS011;10154;52.474;10.768;2024-01-15T04:51:29;6.00;;;1.10;;
19985;SDS011;10154;52.474;10.768;2024-01-15T04:53:54;5.10;;;1.10;;
19985;SDS011;10154;52.474;10.768;2024-01-15T04:56:19;8.23;;;1.43;;
19985;SDS011;10154;52.474;10.768;2024-01-15T04:58:45;8.87;;;1.40;;
19985;SDS011;10154;52.474;10.768;2024-01-15T05:01:10;7.10;;;1.03;;
19985;SDS011;10154;52.474;10.768;2024-01-15T05:03:36;9.47;;;1.23;;
19985;SDS011;10154;52.474;10.768;2024-01-15T05:06:01;12.97;;;1.97;;
19985;SDS011;10154;52.474;10.768;2024-01-15T05:08:26;1.97;;;0.80;;
19985;SDS011;10154;52.474;10.768;2024-01-15T05:10:52;7.70;;;1.13;;
19985;SDS011;10154;52.474;10.768;2024-01-15T05:13:17;6.13;;;1.10;;
19985;SDS011;10154;52.474;10.768;2024-01-15T05:15:42;6.60;;;1.20;;
19985;SDS011;10154;52.474;10.768;2024-01-15T05:18:08;5.80;;;1.37;;
19985;SDS011;10154;52.474;10.768;2024-01-15T05:20:33;9.10;;;1.00;;
19985;SDS011;10154;52.474;10.768;2024-01-15T05:22:59;13.23;;;1.53;;
19985;SDS011;10154;52.474;10.768;2024-01-15T05:25:24;5.40;;;1.13;;
19985;SDS011;10154;52.474;10.768;2024-01-15T05:27:50;15.57;;;2.07;;
19985;SDS011;10154;52.474;10.768;2024-01-15T05:30:15;6.20;;;1.40;;
19985;SDS011;10154;52.474;10.768;2024-01-15T05:32:41;3.97;;;1.00;;
19985;SDS011;10154;52.474;10.768;2024-01-15T05:35:06;3.80;;;0.57;;
19985;SDS011;10154;52.474;10.768;2024-01-15T05:37:32;7.87;;;1.43;;
19985;SDS011;10154;52.474;10.768;2024-01-15T05:39:57;5.57;;;1.40;;
19985;SDS011;10154;52.474;10.768;2024-01-15T05:42:23;5.80;;;1.50;;
19985;SDS011;10154;52.474;10.768;2024-01-15T05:44:49;3.13;;;1.23;;
19985;SDS011;10154;52.474;10.768;2024-01-15T05:47:14;7.27;;;0.97;;
19985;SDS011;10154;52.474;10.768;2024-01-15T05:49:39;3.57;;;1.30;;
19985;SDS011;10154;52.474;10.768;2024-01-15T05:52:05;5.27;;;1.33;;
19985;SDS011;10154;52.474;10.768;2024-01-15T05:54:30;2.73;;;1.00;;
19985;SDS011;10154;52.474;10.768;2024-01-15T05:56:55;5.57;;;1.57;;
19985;SDS011;10154;52.474;10.768;2024-01-15T05:59:21;5.60;;;1.80;;
19985;SDS011;10154;52.474;10.768;2024-01-15T06:01:46;8.67;;;1.73;;
19985;SDS011;10154;52.474;10.768;2024-01-15T06:04:11;9.93;;;2.33;;
19985;SDS011;10154;52.474;10.768;2024-01-15T06:06:37;5.57;;;1.67;;
19985;SDS011;10154;52.474;10.768;2024-01-15T06:09:02;4.77;;;1.10;;
19985;SDS011;10154;52.474;10.768;2024-01-15T06:11:30;14.37;;;2.10;;
19985;SDS011;10154;52.474;10.768;2024-01-15T06:13:59;6.00;;;1.90;;
19985;SDS011;10154;52.474;10.768;2024-01-15T06:16:27;4.20;;;1.40;;
19985;SDS011;10154;52.474;10.768;2024-01-15T06:18:53;7.00;;;2.00;;
19985;SDS011;10154;52.474;10.768;2024-01-15T06:21:18;5.07;;;1.23;;
19985;SDS011;10154;52.474;10.768;2024-01-15T06:23:44;9.93;;;1.73;;
19985;SDS011;10154;52.474;10.768;2024-01-15T06:26:11;7.43;;;1.90;;
19985;SDS011;10154;52.474;10.768;2024-01-15T06:28:37;6.17;;;1.53;;
19985;SDS011;10154;52.474;10.768;2024-01-15T06:31:02;9.43;;;1.93;;
19985;SDS011;10154;52.474;10.768;2024-01-15T06:33:28;14.33;;;2.80;;
19985;SDS011;10154;52.474;10.768;2024-01-15T06:35:53;10.17;;;1.70;;
19985;SDS011;10154;52.474;10.768;2024-01-15T06:38:19;7.60;;;1.33;;
19985;SDS011;10154;52.474;10.768;2024-01-15T06:40:44;7.33;;;2.20;;
19985;SDS011;10154;52.474;10.768;2024-01-15T06:43:13;10.03;;;1.57;;
19985;SDS011;10154;52.474;10.768;2024-01-15T06:45:39;5.70;;;1.47;;
19985;SDS011;10154;52.474;10.768;2024-01-15T06:48:05;3.23;;;1.20;;
19985;SDS011;10154;52.474;10.768;2024-01-15T06:50:32;9.03;;;2.00;;
19985;SDS011;10154;52.474;10.768;2024-01-15T06:52:57;4.53;;;1.10;;
19985;SDS011;10154;52.474;10.768;2024-01-15T06:55:23;8.23;;;1.80;;
19985;SDS011;10154;52.474;10.768;2024-01-15T06:57:48;5.37;;;1.90;;
19985;SDS011;10154;52.474;10.768;2024-01-15T07:00:14;4.00;;;1.30;;
19985;SDS011;10154;52.474;10.768;2024-01-15T07:02:39;4.77;;;0.90;;
19985;SDS011;10154;52.474;10.768;2024-01-15T07:05:05;9.10;;;1.53;;
19985;SDS011;10154;52.474;10.768;2024-01-15T07:07:31;7.37;;;1.57;;
19985;SDS011;10154;52.474;10.768;2024-01-15T07:09:56;8.20;;;2.17;;
19985;SDS011;10154;52.474;10.768;2024-01-15T07:12:22;4.53;;;1.33;;
19985;SDS011;10154;52.474;10.768;2024-01-15T07:14:47;7.73;;;1.87;;
19985;SDS011;10154;52.474;10.768;2024-01-15T07:17:12;7.10;;;2.37;;
19985;SDS011;10154;52.474;10.768;2024-01-15T07:19:38;4.87;;;2.10;;
19985;SDS011;10154;52.474;10.768;2024-01-15T07:22:03;10.57;;;2.10;;
19985;SDS011;10154;52.474;10.768;2024-01-15T07:24:28;8.13;;;1.70;;
19985;SDS011;10154;52.474;10.768;2024-01-15T07:26:54;9.80;;;1.97;;
19985;SDS011;10154;52.474;10.768;2024-01-15T07:29:19;8.20;;;2.27;;
19985;SDS011;10154;52.474;10.768;2024-01-15T07:31:50;6.73;;;2.30;;
19985;SDS011;10154;52.474;10.768;2024-01-15T07:34:16;5.03;;;1.83;;
19985;SDS011;10154;52.474;10.768;2024-01-15T07:36:43;9.73;;;2.50;;
19985;SDS011;10154;52.474;10.768;2024-01-15T07:39:09;4.60;;;1.70;;
19985;SDS011;10154;52.474;10.768;2024-01-15T07:41:34;14.13;;;2.27;;
19985;SDS011;10154;52.474;10.768;2024-01-15T07:44:00;3.03;;;1.17;;
19985;SDS011;10154;52.474;10.768;2024-01-15T07:46:25;7.43;;;2.03;;
19985;SDS011;10154;52.474;10.768;2024-01-15T07:48:51;4.37;;;1.23;;
19985;SDS011;10154;52.474;10.768;2024-01-15T07:51:21;15.23;;;2.37;;
19985;SDS011;10154;52.474;10.768;2024-01-15T07:53:50;10.73;;;3.00;;
19985;SDS011;10154;52.474;10.768;2024-01-15T07:56:16;6.70;;;1.13;;
19985;SDS011;10154;52.474;10.768;2024-01-15T07:58:41;7.47;;;1.73;;
19985;SDS011;10154;52.474;10.768;2024-01-15T08:01:07;8.00;;;1.87;;
19985;SDS011;10154;52.474;10.768;2024-01-15T08:03:32;8.47;;;2.03;;
19985;SDS011;10154;52.474;10.768;2024-01-15T08:05:58;7.30;;;1.93;;
19985;SDS011;10154;52.474;10.768;2024-01-15T08:08:24;5.13;;;1.37;;
19985;SDS011;10154;52.474;10.768;2024-01-15T08:10:51;11.33;;;2.07;;
19985;SDS011;10154;52.474;10.768;2024-01-15T08:13:17;12.80;;;1.70;;
19985;SDS011;10154;52.474;10.768;2024-01-15T08:15:42;6.87;;;1.63;;
19985;SDS011;10154;52.474;10.768;2024-01-15T08:18:07;9.83;;;1.97;;
19985;SDS011;10154;52.474;10.768;2024-01-15T08:20:34;14.97;;;3.00;;
19985;SDS011;10154;52.474;10.768;2024-01-15T08:22:59;7.67;;;2.47;;
19985;SDS011;10154;52.474;10.768;2024-01-15T08:25:24;11.97;;;2.90;;
19985;SDS011;10154;52.474;10.768;2024-01-15T08:27:51;6.30;;;1.70;;
19985;SDS011;10154;52.474;10.768;2024-01-15T08:30:16;8.13;;;2.17;;
19985;SDS011;10154;52.474;10.768;2024-01-15T08:32:43;6.17;;;1.33;;
19985;SDS011;10154;52.474;10.768;2024-01-15T08:35:09;3.50;;;1.13;;
19985;SDS011;10154;52.474;10.768;2024-01-15T08:37:34;10.77;;;2.40;;
19985;SDS011;10154;52.474;10.768;2024-01-15T08:40:00;8.63;;;2.60;;
19985;SDS011;10154;52.474;10.768;2024-01-15T08:42:25;10.00;;;2.40;;
19985;SDS011;10154;52.474;10.768;2024-01-15T08:44:50;7.30;;;2.40;;
19985;SDS011;10154;52.474;10.768;2024-01-15T08:47:16;7.17;;;2.73;;
19985;SDS011;10154;52.474;10.768;2024-01-15T08:49:42;10.50;;;3.53;;
19985;SDS011;10154;52.474;10.768;2024-01-15T08:52:09;13.33;;;3.80;;
19985;SDS011;10154;52.474;10.768;2024-01-15T08:54:35;8.70;;;3.90;;
19985;SDS011;10154;52.474;10.768;2024-01-15T08:57:00;13.63;;;4.73;;
19985;SDS011;10154;52.474;10.768;2024-01-15T08:59:25;10.23;;;4.37;;
19985;SDS011;10154;52.474;10.768;2024-01-15T09:01:51;9.57;;;4.60;;
19985;SDS011;10154;52.474;10.768;2024-01-15T09:04:17;5.67;;;2.63;;
19985;SDS011;10154;52.474;10.768;2024-01-15T09:06:46;7.40;;;2.27;;
19985;SDS011;10154;52.474;10.768;2024-01-15T09:09:14;10.40;;;4.30;;
19985;SDS011;10154;52.474;10.768;2024-01-15T09:11:42;4.60;;;1.87;;
19985;SDS011;10154;52.474;10.768;2024-01-15T09:14:07;5.93;;;3.20;;
19985;SDS011;10154;52.474;10.768;2024-01-15T09:16:34;4.70;;;2.80;;
19985;SDS011;10154;52.474;10.768;2024-01-15T09:18:59;6.83;;;3.07;;
19985;SDS011;10154;52.474;10.768;2024-01-15T09:21:25;8.63;;;2.93;;
19985;SDS011;10154;52.474;10.768;2024-01-15T09:23:50;8.30;;;4.80;;
19985;SDS011;10154;52.474;10.768;2024-01-15T09:26:16;10.20;;;5.40;;
19985;SDS011;10154;52.474;10.768;2024-01-15T09:28:41;12.10;;;5.50;;
19985;SDS011;10154;52.474;10.768;2024-01-15T09:31:07;11.30;;;4.90;;
19985;SDS011;10154;52.474;10.768;2024-01-15T09:33:32;11.70;;;5.47;;
19985;SDS011;10154;52.474;10.768;2024-01-15T09:36:01;14.63;;;5.67;;
19985;SDS011;10154;52.474;10.768;2024-01-15T09:38:28;10.23;;;3.80;;
19985;SDS011;10154;52.474;10.768;2024-01-15T09:40:54;8.20;;;4.13;;
19985;SDS011;10154;52.474;10.768;2024-01-15T09:43:20;12.97;;;5.37;;
19985;SDS011;10154;52.474;10.768;2024-01-15T09:45:46;9.80;;;4.57;;
19985;SDS011;10154;52.474;10.768;2024-01-15T09:48:11;6.63;;;2.30;;
19985;SDS011;10154;52.474;10.768;2024-01-15T09:50:37;8.37;;;4.60;;
19985;SDS011;10154;52.474;10.768;2024-01-15T09:53:03;8.10;;;3.73;;
19985;SDS011;10154;52.474;10.768;2024-01-15T09:55:30;7.43;;;2.93;;
19985;SDS011;10154;52.474;10.768;2024-01-15T09:57:57;7.10;;;3.30;;
19985;SDS011;10154;52.474;10.768;2024-01-15T10:00:25;6.33;;;1.93;;
19985;SDS011;10154;52.474;10.768;2024-01-15T10:02:51;4.97;;;2.50;;
19985;SDS011;10154;52.474;10.768;2024-01-15T10:05:16;6.40;;;2.00;;
19985;SDS011;10154;52.474;10.768;2024-01-15T10:07:41;2.20;;;1.20;;
19985;SDS011;10154;52.474;10.768;2024-01-15T10:10:07;4.20;;;1.37;;
19985;SDS011;10154;52.474;10.768;2024-01-15T10:12:33;3.57;;;1.67;;
19985;SDS011;10154;52.474;10.768;2024-01-15T10:14:59;4.63;;;1.80;;
19985;SDS011;10154;52.474;10.768;2024-01-15T10:17:25;5.07;;;1.90;;
19985;SDS011;10154;52.474;10.768;2024-01-15T10:19:53;5.83;;;2.00;;
19985;SDS011;10154;52.474;10.768;2024-01-15T10:22:18;7.70;;;2.80;;
19985;SDS011;10154;52.474;10.768;2024-01-15T10:24:43;9.13;;;2.40;;
19985;SDS011;10154;52.474;10.768;2024-01-15T10:27:10;2.43;;;1.43;;
19985;SDS011;10154;52.474;10.768;2024-01-15T10:29:36;4.27;;;1.50;;
19985;SDS011;10154;52.474;10.768;2024-01-15T10:32:11;12.33;;;2.37;;
19985;SDS011;10154;52.474;10.768;2024-01-15T10:34:40;6.13;;;2.10;;
19985;SDS011;10154;52.474;10.768;2024-01-15T10:37:08;3.87;;;2.27;;
19985;SDS011;10154;52.474;10.768;2024-01-15T10:39:34;5.87;;;2.37;;
19985;SDS011;10154;52.474;10.768;2024-01-15T10:41:59;7.27;;;2.43;;
19985;SDS011;10154;52.474;10.768;2024-01-15T10:44:25;9.30;;;2.00;;
19985;SDS011;10154;52.474;10.768;2024-01-15T10:46:50;13.63;;;3.10;;
19985;SDS011;10154;52.474;10.768;2024-01-15T10:49:16;4.83;;;2.17;;
19985;SDS011;10154;52.474;10.768;2024-01-15T10:51:44;5.70;;;1.50;;
19985;SDS011;10154;52.474;10.768;2024-01-15T10:54:09;6.53;;;1.73;;
19985;SDS011;10154;52.474;10.768;2024-01-15T10:56:38;9.43;;;2.60;;
19985;SDS011;10154;52.474;10.768;2024-01-15T10:59:04;6.20;;;1.73;;
19985;SDS011;10154;52.474;10.768;2024-01-15T11:01:30;7.43;;;2.43;;
19985;SDS011;10154;52.474;10.768;2024-01-15T11:03:56;8.77;;;2.97;;
19985;SDS011;10154;52.474;10.768;2024-01-15T11:06:23;3.33;;;1.67;;
19985;SDS011;10154;52.474;10.768;2024-01-15T11:08:50;9.17;;;2.10;;
19985;SDS011;10154;52.474;10.768;2024-01-15T11:11:17;8.90;;;2.43;;
19985;SDS011;10154;52.474;10.768;2024-01-15T11:13:43;2.47;;;1.30;;
19985;SDS011;10154;52.474;10.768;2024-01-15T11:16:11;9.07;;;3.70;;
19985;SDS011;10154;52.474;10.768;2024-01-15T11:18:38;11.63;;;3.33;;
19985;SDS011;10154;52.474;10.768;2024-01-15T11:26:26;10.47;;;1.87;;
19985;SDS011;10154;52.474;10.768;2024-01-15T11:29:03;7.33;;;1.97;;
19985;SDS011;10154;52.474;10.768;2024-01-15T11:34:03;6.90;;;1.60;;
19985;SDS011;10154;52.474;10.768;2024-01-15T11:41:51;4.80;;;1.60;;
19985;SDS011;10154;52.474;10.768;2024-01-15T11:44:17;2.67;;;1.17;;
19985;SDS011;10154;52.474;10.768;2024-01-15T11:46:43;7.53;;;1.87;;
19985;SDS011;10154;52.474;10.768;2024-01-15T11:52:17;6.03;;;1.13;;
19985;SDS011;10154;52.474;10.768;2024-01-15T11:54:48;2.87;;;1.13;;
19985;SDS011;10154;52.474;10.768;2024-01-15T11:57:45;5.97;;;1.07;;
19985;SDS011;10154;52.474;10.768;2024-01-15T12:00:17;7.27;;;1.40;;
19985;SDS011;10154;52.474;10.768;2024-01-15T12:02:44;8.17;;;1.60;;
19985;SDS011;10154;52.474;10.768;2024-01-15T12:05:11;7.10;;;1.73;;
19985;SDS011;10154;52.474;10.768;2024-01-15T12:07:38;3.30;;;1.20;;
19985;SDS011;10154;52.474;10.768;2024-01-15T12:10:10;5.50;;;2.37;;
19985;SDS011;10154;52.474;10.768;2024-01-15T12:12:44;6.30;;;3.17;;
19985;SDS011;10154;52.474;10.768;2024-01-15T12:15:15;11.20;;;3.87;;
19985;SDS011;10154;52.474;10.768;2024-01-15T12:17:41;8.30;;;2.73;;
19985;SDS011;10154;52.474;10.768;2024-01-15T12:20:06;8.57;;;3.80;;
19985;SDS011;10154;52.474;10.768;2024-01-15T12:22:32;9.37;;;3.50;;
19985;SDS011;10154;52.474;10.768;2024-01-15T12:24:58;12.33;;;3.83;;
19985;SDS011;10154;52.474;10.768;2024-01-15T12:27:23;7.80;;;3.80;;
19985;SDS011;10154;52.474;10.768;2024-01-15T12:29:49;9.23;;;4.00;;
19985;SDS011;10154;52.474;10.768;2024-01-15T12:32:14;3.00;;;1.67;;
19985;SDS011;10154;52.474;10.768;2024-01-15T12:34:40;11.20;;;3.33;;
19985;SDS011;10154;52.474;10.768;2024-01-15T12:37:06;8.87;;;3.10;;
19985;SDS011;10154;52.474;10.768;2024-01-15T12:39:33;8.50;;;2.90;;
19985;SDS011;10154;52.474;10.768;2024-01-15T12:42:00;8.83;;;3.10;;
19985;SDS011;10154;52.474;10.768;2024-01-15T12:44:26;4.63;;;2.50;;
19985;SDS011;10154;52.474;10.768;2024-01-15T12:46:51;4.43;;;1.90;;
19985;SDS011;10154;52.474;10.768;2024-01-15T12:49:16;4.60;;;2.07;;
19985;SDS011;10154;52.474;10.768;2024-01-15T12:51:42;5.10;;;1.80;;
19985;SDS011;10154;52.474;10.768;2024-01-15T12:54:07;6.90;;;2.10;;
19985;SDS011;10154;52.474;10.768;2024-01-15T12:56:33;6.37;;;2.10;;
19985;SDS011;10154;52.474;10.768;2024-01-15T12:58:58;11.07;;;2.23;;
19985;SDS011;10154;52.474;10.768;2024-01-15T13:01:24;6.50;;;1.90;;
19985;SDS011;10154;52.474;10.768;2024-01-15T13:03:49;10.40;;;1.73;;
19985;SDS011;10154;52.474;10.768;2024-01-15T13:06:15;7.47;;;1.93;;
19985;SDS011;10154;52.474;10.768;2024-01-15T13:08:40;9.93;;;1.77;;
19985;SDS011;10154;52.474;10.768;2024-01-15T13:11:06;4.80;;;1.40;;
19985;SDS011;10154;52.474;10.768;2024-01-15T13:13:31;7.50;;;1.73;;
19985;SDS011;10154;52.474;10.768;2024-01-15T13:15:59;4.13;;;1.27;;
19985;SDS011;10154;52.474;10.768;2024-01-15T13:18:25;7.47;;;1.60;;
19985;SDS011;10154;52.474;10.768;2024-01-15T13:20:50;4.63;;;0.93;;
19985;SDS011;10154;52.474;10.768;2024-01-15T13:23:16;5.33;;;1.47;;
19985;SDS011;10154;52.474;10.768;2024-01-15T13:25:41;3.10;;;1.07;;
19985;SDS011;10154;52.474;10.768;2024-01-15T13:28:07;5.23;;;1.13;;
19985;SDS011;10154;52.474;10.768;2024-01-15T13:30:33;4.60;;;1.83;;
19985;SDS011;10154;52.474;10.768;2024-01-15T13:32:58;5.60;;;1.40;;
19985;SDS011;10154;52.474;10.768;2024-01-15T13:35:28;5.13;;;1.30;;
19985;SDS011;10154;52.474;10.768;2024-01-15T13:37:54;7.77;;;1.50;;
19985;SDS011;10154;52.474;10.768;2024-01-15T13:40:19;4.10;;;1.23;;
19985;SDS011;10154;52.474;10.768;2024-01-15T13:42:47;3.93;;;1.17;;
19985;SDS011;10154;52.474;10.768;2024-01-15T13:45:13;2.77;;;1.47;;
19985;SDS011;10154;52.474;10.768;2024-01-15T13:47:39;11.67;;;2.40;;
19985;SDS011;10154;52.474;10.768;2024-01-15T13:50:07;4.90;;;1.70;;
19985;SDS011;10154;52.474;10.768;2024-01-15T13:52:32;7.33;;;1.83;;
19985;SDS011;10154;52.474;10.768;2024-01-15T13:54:58;1.70;;;0.93;;
19985;SDS011;10154;52.474;10.768;2024-01-15T13:57:23;10.93;;;2.20;;
19985;SDS011;10154;52.474;10.768;2024-01-15T13:59:48;8.17;;;1.90;;
19985;SDS011;10154;52.474;10.768;2024-01-15T14:02:14;7.93;;;2.20;;
19985;SDS011;10154;52.474;10.768;2024-01-15T14:04:40;5.33;;;1.40;;
19985;SDS011;10154;52.474;10.768;2024-01-15T14:07:06;7.90;;;1.60;;
19985;SDS011;10154;52.474;10.768;2024-01-15T14:09:31;13.03;;;1.97;;
19985;SDS011;10154;52.474;10.768;2024-01-15T14:11:57;7.77;;;2.07;;
19985;SDS011;10154;52.474;10.768;2024-01-15T14:14:22;7.60;;;1.67;;
19985;SDS011;10154;52.474;10.768;2024-01-15T14:16:48;9.33;;;2.03;;
19985;SDS011;10154;52.474;10.768;2024-01-15T14:19:14;3.13;;;1.03;;
19985;SDS011;10154;52.474;10.768;2024-01-15T14:21:40;7.77;;;2.00;;
19985;SDS011;10154;52.474;10.768;2024-01-15T14:24:05;6.37;;;1.60;;
19985;SDS011;10154;52.474;10.768;2024-01-15T14:26:31;6.93;;;2.10;;
19985;SDS011;10154;52.474;10.768;2024-01-15T14:28:56;10.27;;;2.23;;
19985;SDS011;10154;52.474;10.768;2024-01-15T14:31:23;8.37;;;2.33;;
19985;SDS011;10154;52.474;10.768;2024-01-15T14:33:51;10.80;;;3.23;;
19985;SDS011;10154;52.474;10.768;2024-01-15T14:36:16;7.37;;;2.50;;
19985;SDS011;10154;52.474;10.768;2024-01-15T14:38:42;4.80;;;2.00;;